Aérodrome :
LOGIN :

S'inscrire | Disclaimer

   EN    FR    IT 

 










Légende :    VFR   VFR Marginal   IFR   IFR Intensif   IFR Très Intensif
Visi : 
Plafond : 
>= 8 km
>= 3000ft
5 à 8 km
1000 à 3000 ft
1500m à 5 km
500 à 1000 ft
800 à 1500m
200 à 500 ft
< 800m
< 200 ft
Symboles :   Orages  Brouillard  Fortes neiges  Fortes précipitations  Vent > 20 kt
SIGMETs :   Divers  Orages  Givrage  Turbulence  Onde Orograph.  Cendres Volcan.







- Altitude de l'aérodrome : 74 ft
- Code IATA : LRH
- Voir les cartes d'approche


LFBH - La Rochelle Ile de Ré

DERNIER METAR :
  • 131630Z AUTO 25022G34KT 9999 SCT006 BKN012 BKN017 13/12 Q1007 TEMPO 4500 -SHRA BECMG BKN020 OVC060

METARs EXPIRÉS :
  • 131600Z AUTO 24026KT 9999 OVC006 13/12 Q1006 TEMPO 25025G40KT 2500 RA BKN004 OVC010
  • 131530Z AUTO 23017KT 3900 BR OVC004 12/12 Q1007 TEMPO 25025G40KT 2500 RA BKN005 OVC010
  • 131500Z AUTO 22017KT 3900 -RA BR OVC004 12/11 Q1007 TEMPO 25025G40KT 2500 RA BKN005 OVC010
  • 131430Z AUTO 21017G27KT 180V240 3900 -RA BR BKN005 OVC011 11/10 Q1008 TEMPO 25025G40KT 2500 RA OVC010
  • 131400Z AUTO 22015KT 4400 -RA BR SCT007 BKN011 BKN019 11/10 Q1009 TEMPO 25025G40KT 2500 RA

TAF AMD TAF LFBH
Valide du 13 à 15h jusqu'au 14 à 12h UTC


131528Z 1315/1412 20015G25KT 9999 BKN020 OVC060
PROB40
TEMPO 1315/1412 25025G40KT
TEMPO 1315/1318 2500 RA BKN004 OVC010
TEMPO 1318/1323 4500 -SHRA
TEMPO 1400/1412 3500 -RA BKN008 OVC013
ATIS : +33 5 46 00 13 92
Pas de NOTAMs connus pour ce terrain.
1 SIGMET publié pour la FIR Bordeaux (LFBB) :
 
Turbulence forte
LFBB SIGMET 1 VALID 131600/132000 LFPW
LFBB BORDEAUX FIR/UIR SEV TURB FCST WI N4445 W00145 - N4630 W00130 - N4630 W00015 - N4715 W00015 - N4715 E00200 - N4700 E00215 - N4545 E00130 - N4445 W00145 SFC/FL050 MOV E 40KT INTSF=



MET'MAP, la Météo Aéronautique d'un coup d'oeil ! - Copyright ORBIFLY Décembre 2007 - Disclaimer

ORBIFLY MET'MAP TEAM :

Programmation & Développement : Alexandra Zaïnal
Conception & Développement : Baudouin d'Aumeries
Co-Programmation & Développement : Marc-Olivier Méhu
Soutien technique & logistique : Manuel Goepfert

Contact : metmap@orbifly.com




SOURCES & CREDITS :

   NOAA